the time You need

Montecoronaro MTB

Montecoronaro, Forlì-Cesena   Italy

domenica 02 agosto 2015

Percorsi

LUNGO - 28.0 Km

 

CORTO - 10.0 Km

Servizi

ADSCOSTPunti KS Ranking

Chip

Circuiti

Romagna Bike Cup

Ente

FCI

CLASSIFICA

LUNGO - 28.0 Km

Pos Atleta Sesso Cat PosC Team Tempo Media RTime
DNF CANGINI MARINO M M5 - ASD TEAM COMACO - - -
DNF COLLINI LUCA M ELMT - GS BULGARNO´ BIKE 2008 - - -
DNF BALDISSERRI PIETRO M M6 - GS TORPADO SURFING SHOP SPORT PROMOTION - - -
186 CORTINI DONATELLA F MW2 5 TEAM PASSION FAENTINA 02:33:09.01 10,97 02:32:14.14
185 GAGLIANO CLARA F MW2 4 BAMBANA BIKE 02:24:42.24 11,61 02:23:57.14
183 CHILLO TANIA F MW2 2 ASD ONLYOFF DUE RUOTE 02:21:44.98 11,85 02:21:04.08
184 BALDUCCI ANTONELLA F MW2 3 SC VELOCIRAPTOR 02:22:04.74 11,83 02:21:16.34
182 FERRINI MATTIA M JUN 4 SPACCO ASD 02:19:50.73 12,01 02:18:44.33
181 GEMINIANI CLAUDIO M M7 2 ASD TEAM COMACO 02:19:47.46 12,02 02:18:36.36
180 ARLOTTI MAURIZIO M M5 20 TEAM TORPEDO BIKE 02:19:28.99 12,05 02:18:50.09
179 BELLAGAMBA MICHELE M ELMT 20 GS TORPADO SURFING SHOP SPORT PROMOTION 02:18:48.46 12,10 02:17:40.40
178 BASSETTI MASSIMO M M6 17 180 BPM 02:18:41.74 12,11 02:17:31.54
176 DE BONIS ENEA M M3 24 GS TORPADO SURFING SHOP SPORT PROMOTION 02:13:55.45 12,55 02:12:45.45
177 IGLINA ANGELO M M2 26 ASD GRUPPO SPORTIVO ESERCITO 02:14:53.22 12,46 02:13:46.46
175 ZAPPI MATTEO M ELMT 19 POL. YOUNG LINE BIKE INNOVATION 02:10:39.44 12,86 02:09:33.04
174 SAMPAOLI GIMMI M M2 25 COMERO BIKE 02:10:16.96 12,90 02:09:15.06
173 GALLEGATI PAOLO M M3 23 ASD SAMBI TEAM 02:10:08.96 12,91 02:09:33.76
172 CASALBONI ALESSANDRO M ELMT 18 TEAM TORPEDO BIKE 02:09:24.21 12,98 02:08:53.53
171 GOLFERA FABRIZIO M M6 16 TEAM PASSION FAENTINA 02:07:08.70 13,21 02:06:31.30
170 BELLAGAMBA MATTIA M 2S 29 GS TORPADO SURFING SHOP SPORT PROMOTION 02:06:55.95 13,24 02:05:46.25
168 RUGGIERO PASQUALE M M2 24 ASD GRUPPO SPORTIVO ESERCITO 02:05:12.95 13,42 02:04:07.25
169 MAZZINI MARCO M M3 22 BAMBANA BIKE 02:06:12.43 13,31 02:05:33.33
167 FERRI MAURO M M7 1 BAMBANA BIKE 02:05:11.95 13,42 02:05:01.05
166 FABIANI FABIO M 2S 28 SPACCO ASD 02:04:36.95 13,48 02:03:54.95
165 SELVA FEDERICO M 2S 27 SAN MARINO MTB TEAM 02:04:15.70 13,52 02:03:33.33
164 MORDENTI FERNANDO M M6 15 ASD TEAM COMACO 02:03:36.95 13,59 02:02:20.55
162 PUGLISI ALESSANDRO M ELMT 17 ASD SUPER TEAM 02:02:57.83 13,66 02:02:20.43
163 GRANDI ENRICO M 2S 26 TEAM MONDOBICI TECNOPLAST 02:03:32.70 13,60 02:02:32.20
161 SILVANI ANDREA M ELMT 16 COMERO BIKE 02:02:57.69 13,66 02:02:07.29
160 GRASSI GIULIANO M M6 14 GS TORPADO SURFING SHOP SPORT PROMOTION 02:02:41.94 13,69 02:01:28.54
159 ZOLLO CARLO M M6 13 KTM FORTI E LIBERI 02:01:49.19 13,79 02:00:49.09
158 MARANI RICCARDO M M2 23 TEAM PASSION FAENTINA 02:01:42.19 13,80 02:01:07.07
157 FERRINI PIERDAMIANO M M4 21 ASD IMOLA BIKE 02:00:45.19 13,91 01:59:37.37
156 BISSIONI LORENZO M M6 12 PEDALE CESENATE CICLI NERI 02:00:14.69 13,97 01:59:53.53
155 BARTOLONI GIANNI M M5 19 SAN MARINO MTB TEAM 02:00:00.19 14,00 01:59:14.09
154 BOLLINI STEFANO M M2 22 SAN MARINO MTB TEAM 01:59:32.69 14,05 01:58:48.48
153 FIAMMENGHI FLAMIGNI ALBERTO M M3 21 AS TARTANA BIKE 01:59:30.19 14,06 01:58:49.49
152 BRIZZI GIULIANO M M4 20 ASD VALMARACING TEAM 01:59:18.42 14,08 01:58:23.23
151 CALAMOSCA STEFANO M M3 20 UISP TERRITORIALE 01:59:12.69 14,09 01:58:04.04
150 ZOLI MATTIA M ELMT 15 SC VELOCIRAPTOR 01:59:11.42 14,10 01:58:08.08
148 FILIPPI GIACOMO M ELMT 14 180 BPM 01:57:53.42 14,25 01:57:09.02
149 CHIARADIA TULLIO M M2 21 180 BPM 01:59:10.44 14,10 01:58:18.24
147 ROVINELLI RICCARDO M 2S 25 SPACCO ASD 01:57:51.18 14,26 01:57:08.08
146 BAZZOCCHI MARCO M 2S 24 ASD TEAM COMACO 01:57:16.18 14,33 01:56:17.17
145 MARTINI ALESSANDRO M M3 19 POL. YOUNG LINE BIKE INNOVATION 01:56:33.68 14,41 01:55:23.48
144 RONCASSAGLIA GABRIELE M 2S 23 BAMBANA BIKE 01:56:13.38 14,46 01:55:20.20
143 PARA MASSIMO M M5 18 COMERO BIKE 01:56:09.18 14,46 01:55:10.10
142 MONDUZZI MORENO M M5 17 ASD IMOLA BIKE 01:56:07.41 14,47 01:55:36.01
141 ACCIAI MAURIZIO M M6 11 GRUPPO TNT 01:55:28.68 14,55 01:55:15.48
140 AMADUCCI ROBERTO M M6 10 180 BPM 01:55:23.43 14,56 01:54:56.56
139 BUDELACCI MIRCO M 2S 22 GS TORPADO SURFING SHOP SPORT PROMOTION 01:55:12.18 14,58 01:54:22.22
138 CORZANI ALESSANDRO M 2S 21 AS TARTANA BIKE 01:54:55.68 14,62 01:53:51.48
137 NANNETTI ALBERTO M 2S 20 180 BPM 01:54:41.41 14,65 01:53:45.01
136 BRIGLIADORI SANDRO M M6 9 SCORPION BIKE MTB 01:54:31.43 14,67 01:53:44.44
134 BERNABINI NICOLA M ELMT 13 PEDALE CESENATE CICLI NERI 01:54:01.18 14,73 01:53:12.12
135 MARTINETTI FORTUNATO M M4 19 COMERO BIKE 01:54:10.68 14,72 01:53:08.58
133 TALOZZI FEDERICO M M3 18 ASD MTB DURANTINI 01:54:00.68 14,74 01:53:03.48
132 DOS SANTOS FABIO M M1 17 ASD TEAM COMACO 01:53:37.92 14,79 01:53:04.22
131 AGNOLETTI MARIO M M3 17 UISP RAVENNA 01:52:37.92 14,92 01:51:52.02
130 FAGGIOLINI CRISTIAN M 2S 19 AS TARTANA BIKE 01:52:29.68 14,94 01:51:25.08
129 CICOGNANI FABRIZIO M M1 16 180 BPM 01:52:00.18 15,00 01:51:12.12
128 MINIELLO LEO M M1 15 TEAM BIKE COCIF.COM ASD 01:51:57.17 15,01 01:51:23.23
127 DE SIMONE ALESSANDRO M M1 14 GOOD BIKE AS RONCOFREDDESE 01:51:54.42 15,01 01:51:03.02
126 MARONI MICHELE M M2 20 GOOD BIKE AS RONCOFREDDESE 01:51:50.18 15,02 01:50:56.56
124 TAMPELLINI MATTEO M 2S 18 180 BPM 01:50:07.40 15,26 01:49:16.16
125 CAMPANINI GIANNI M M5 16 PEDALE CESENATE CICLI NERI 01:51:14.40 15,10 01:50:44.44
123 RINALDI ANDREA M ELMT 12 GRUPPO TNT 01:50:06.17 15,26 01:49:38.38
122 RUGGIERO BRUNO M M5 15 TEAM K-ONE ASD 01:50:05.40 15,26 01:49:44.00
121 VANUZZO IURI M M2 19 ASD SAMBI TEAM 01:50:03.67 15,27 01:49:02.02
120 PODESCHI ROBERTO M M4 18 GROUPE MONTEVITO CICLISMO 01:49:59.40 15,28 01:49:00.00
119 BARTOLINI VALERIA F MW2 1 TEAM TORPEDO BIKE 01:49:58.17 15,28 01:49:26.26
118 CASTELLUCCI STEFANO M 2S 17 180 BPM 01:49:56.67 15,28 01:49:21.21
116 PIOLANTI PIER DOMENICO M 2S 16 180 BPM 01:49:54.67 15,29 01:49:01.01
117 MESSINA GIUSEPPE M M6 8 BAMBANA BIKE 01:49:56.40 15,28 01:49:09.20
115 BANDINI ALEXANDER M M3 16 VITAMINA TEAM 01:49:53.17 15,29 01:49:12.12
114 PRATELLI DAVIDE M 2S 15 ASCD VALLE DEL CONCA 01:49:51.92 15,29 01:49:07.02
113 VALLICELLI MIRKO M M2 18 TEAM PASSION FAENTINA 01:49:50.17 15,30 01:49:12.12
111 MEINI ALESSANDRO M ELMT 11 ASCD VALLE DEL CONCA 01:49:47.92 15,30 01:49:08.52
112 BALDO RAFFAELE M M4 17 TEAM PASSION FAENTINA 01:49:48.92 15,30 01:49:14.72
110 GREGORI ANTONIO M M6 7 VENTURI ADVENTURE TEAM 01:49:21.40 15,36 01:48:21.30
109 MANTOVANI LUCA M M5 14 BAMBANA BIKE 01:49:16.40 15,38 01:48:39.39
108 PANCISI GABRIELE M M5 13 GRUPPO TNT 01:48:58.67 15,42 01:47:58.58
107 MAURO EMANUELE M ELMT 10 ASD TOSCO-ROMAGNOLA 01:48:56.17 15,42 01:47:53.53
106 PRUNI PAOLO M M4 16 KTM FORTI E LIBERI 01:48:43.17 15,45 01:48:21.21
105 MAGRINI STEFANO M M6 6 SC VELOCIRAPTOR 01:48:42.16 15,46 01:48:11.11
104 CAVIOLI DANIELE M M1 13 ASD LE SALINE NATURA E SPORT 01:48:26.92 15,49 01:48:01.52
102 DALL´OSSO CARLO M 2S 13 POL. YOUNG LINE BIKE INNOVATION 01:47:55.41 15,57 01:47:02.01
103 PIANOSI MARCELLO M 2S 14 ASD CESENA BIKE 01:47:57.16 15,56 01:47:29.29
101 CHIARINI LUCA M M2 17 TEAM PASSION FAENTINA 01:47:07.39 15,68 01:46:40.19
100 GARDINI EMANUELE M 2S 12 GS BULGARNO´ BIKE 2008 01:46:40.91 15,75 01:45:58.91
99 ANCARANI ALESSIO M ELMT 9 TEAM PASSION FAENTINA 01:46:34.16 15,76 01:46:07.07
98 SAPIGNI ALESSANDRO M M3 15 SCORPION BIKE MTB 01:46:20.66 15,80 01:45:57.26
97 FABBRI FABIO M M5 12 180 BPM 01:46:18.39 15,80 01:46:01.39
96 GASTALDI ELISA F MW1 1 TEAM PASSION FAENTINA 01:46:17.16 15,81 01:45:48.48
95 MORRI MIRCO M M4 15 ASD LE SALINE NATURA E SPORT 01:45:51.66 15,87 01:45:27.46
94 BONAVITA ILARIO M M5 11 SPACCO ASD 01:45:46.16 15,88 01:45:28.28
93 PEDROSI CRISTIAN M 2S 11 ASD SUPERTEAM VILLA VERUCCHIO 01:45:27.66 15,93 01:44:54.46
92 TEDESCHI DAMIANO M M1 12 TEAM K-ONE ASD 01:45:26.39 15,93 01:45:07.07
91 SAVINO CARMINE M M4 14 TEAM PASSION FAENTINA 01:45:19.16 15,95 01:44:56.56
90 CONFICONI SAMUELE M M3 14 ASD TEAM ENDURANCE 01:45:09.39 15,98 01:44:26.26
89 MAMBELLI MARCO M M2 16 ASD OTW RAVENNA 01:45:01.66 16,00 01:44:29.29
88 PIOGGIA LUCA M 2S 10 POL. YOUNG LINE BIKE INNOVATION 01:44:56.39 16,01 01:44:40.40
86 LOMBARDI NICOLO´ M ELMT 8 180 BPM 01:44:24.90 16,09 01:44:16.70
87 NERI FABIO M M5 10 ASD TOSCO-ROMAGNOLA 01:44:26.90 16,09 01:43:44.20
85 ZANCHINI FABIO M M4 13 TEAM PASSION FAENTINA 01:44:10.65 16,13 01:43:46.46
84 NARDI MASSIMO M 2S 9 180 BPM 01:44:09.90 16,13 01:43:39.00
83 FABBRI DOMENICO M M5 9 ROMAGNA BIKE GRANDI EVENTI 01:44:06.38 16,14 01:43:31.18
81 SOVERA ALESSIO M M3 13 SALIMBICI BIKE TEAM RUOTE 01:43:57.15 16,16 01:43:24.24
82 ALTINI ANDREA M M2 15 KTM FORTI E LIBERI 01:43:59.38 16,16 01:43:24.24
80 D´ANGELO SIMONE M ELMT 7 ASCD VALLE DEL CONCA 01:43:56.38 16,16 01:42:58.18
79 PELLEGRINI FABIO M M1 11 GOOD BIKE AS RONCOFREDDESE 01:43:50.38 16,18 01:42:56.56
78 BABINI GIOVANNI M M6 5 SC VELOCIRAPTOR 01:43:46.38 16,19 01:43:31.18
77 MONTANARI MAURO M 2S 8 TEAM PASSION FAENTINA 01:43:25.90 16,24 01:43:05.00
76 MAMBELLI MARINO M M6 4 ASD TEAM COMACO 01:43:23.38 16,25 01:43:14.18
75 BALDAZZI ANDREA M M2 14 POL. YOUNG LINE BIKE INNOVATION 01:43:20.90 16,26 01:43:07.50
73 PALANCA GIANLUCA M M4 12 SPACCO ASD 01:43:07.65 16,29 01:42:31.55
74 GRILLI LUCA M M2 13 ASDC VALLE DEL CONCA NORDIC WALKING 01:43:10.15 16,28 01:42:05.05
72 MIGANI DENIS M 2S 7 ASCD VALLE DEL CONCA 01:42:53.38 16,33 01:42:27.27
71 ZACCARELLI GIUSEPPE M M3 12 ASD RICCI CICLI 01:42:31.65 16,39 01:41:29.29
70 DELLA BIANCIA MATTEO M ELMT 6 TEAM CINGOLANI - SPECIALIZED 01:42:30.15 16,39 01:42:21.21
68 TORTOLANI UGO M 2S 5 POL. YOUNG LINE BIKE INNOVATION 01:42:27.38 16,40 01:42:08.08
69 SANTI DANILO M 2S 6 TEAM BIKE 2000 ASD 01:42:29.65 16,39 01:42:04.45
67 FERRIOLI DEVIS M 2S 4 TEAM PASSION FAENTINA 01:42:25.15 16,40 01:42:04.04
66 MEDRI FRANCESCO M M5 8 ROMAGNA BIKE GRANDI EVENTI 01:41:40.38 16,52 01:41:25.25
65 GHETTI WILMER M M4 11 GS TORPADO SURFING SHOP SPORT PROMOTION 01:41:37.90 16,53 01:41:14.50
63 COZZOLINO CLAUDIO M M3 11 ASD TEAM COMACO 01:41:15.65 16,59 01:40:54.25
64 ALESSANDRINI GUGLIELMO M M5 7 ASD ECOLOGY TEAM 01:41:26.65 16,56 01:40:56.56
62 ALEOTTI NICOLA M M3 10 ASD SESSANTALLORA MILANO 01:41:07.38 16,61 01:40:04.18
61 BECCI MORENO M M6 3 GRUPPO TNT 01:41:06.15 16,62 01:40:41.41
60 GARDINI GIORDANO M M4 10 ASD ONLYOFF DUE RUOTE 01:40:54.65 16,65 01:39:42.25
58 CASINI OMANO M M5 6 AVIS PRATOVECCHIO-ERREPI-LEE COUGAN 01:40:34.38 16,71 01:39:37.37
59 SASDELLI MICHELE M 2S 3 BAMBANA BIKE 01:40:52.38 16,66 01:40:24.24
57 LAMA MANUEL M M2 12 ASD PEDALE FORLINESE 01:40:32.15 16,71 01:39:32.32
56 BRIGANTI GIANNI M M5 5 180 BPM 01:39:44.89 16,84 01:39:09.69
55 GOBBI STEFANO M M1 10 ASCD VALLE DEL CONCA 01:39:20.14 16,91 01:38:14.14
53 CASTROGIOVANNI ANDREA M M1 9 PEDALE CESENATE CICLI NERI 01:38:47.89 17,01 01:38:17.69
54 GREGORI DANIELE M M3 9 COMERO BIKE 01:39:10.89 16,94 01:38:20.20
52 MAGALOTTI DAVIDE M 2S 2 SPACCO ASD 01:38:09.89 17,12 01:37:30.69
51 MENGOZZI ANDREA M JUN 3 ASD LE SALINE NATURA E SPORT 01:37:53.89 17,16 01:37:43.69
50 FANTINI MASSIMILIANO M M4 9 TEAM K-ONE ASD 01:37:49.89 17,17 01:37:30.19
48 STAVOLA LUCA M M1 8 SCORPION BIKE MTB 01:37:26.37 17,24 01:37:11.17
49 GUGLIELMI THOMAS M M2 11 SPACCO ASD 01:37:42.37 17,20 01:37:25.37
47 POGGIALI NICOLA M JUN 2 ASD LE SALINE NATURA E SPORT 01:36:54.89 17,34 01:36:44.44
46 CAVICCHI CRISTIAN M 2S 1 POL. YOUNG LINE BIKE INNOVATION 01:36:40.37 17,38 01:36:22.22
45 ZAFFERANI MICHELE M M2 10 SAN MARINO MTB TEAM 01:36:36.89 17,39 01:35:56.49
43 CARDELLI GIANLUIGI M M4 8 ASD IMOLA BIKE 01:36:27.14 17,42 01:36:08.08
44 IAMMARINO GIANLUCA M M3 8 TEAM ESSERE E MTBICIO 01:36:35.37 17,39 01:36:19.19
42 RICEPUTI LUCA M M2 9 TEAM ESSERE E MTBICIO 01:36:10.14 17,47 01:35:55.55
41 ACCORDI LUCA M ELMT 5 ASD OSTERIA 01:36:06.64 17,48 01:34:59.44
40 RAGGINI ROBERTO M M5 4 SCORPION BIKE MTB 01:35:56.14 17,51 01:35:47.47
39 LEONI GERMANO M M4 7 TEAM PASSION FAENTINA 01:35:23.14 17,61 01:35:02.02
37 FAROLFI MAURO M M4 5 POL. YOUNG LINE BIKE INNOVATION 01:34:19.13 17,81 01:34:07.07
38 FIORINI FABIO M M4 6 ASD TEAM ENDURANCE 01:34:22.88 17,80 01:34:11.68
36 CEREDI DANIELE M M2 8 TEAM ESSERE E MTBICIO 01:34:05.88 17,86 01:33:33.48
35 QUARANTINI DAVIDE M M3 7 ASD IMOLA BIKE 01:34:02.13 17,87 01:33:51.51
34 GUGLIELMI MATTEO M M3 6 TEAM BIKE COCIF.COM ASD 01:33:48.63 17,91 01:33:41.41
33 ROSSI ANDREA M M4 4 ROMAGNA BIKE GRANDI EVENTI 01:33:38.13 17,94 01:33:31.31
32 FERRARI ENRICO M M1 7 SPACCO ASD 01:33:19.63 18,00 01:33:04.04
31 SALVATORI STEFANO M M6 2 KTM FORTI E LIBERI 01:32:59.63 18,07 01:32:48.53
30 CALISE MARCO M M6 1 ASCD VALLE DEL CONCA 01:32:29.13 18,17 01:32:23.23
29 FOSCHI CRISTIAN M M3 5 ROMAGNA BIKE GRANDI EVENTI 01:32:23.13 18,19 01:32:19.19
28 CIABATTI GIAMPIERO M M5 3 TEAM BP MOTION ASD 01:32:08.63 18,23 01:31:55.43
26 MAZZONI AGOSTINO M M1 6 180 BPM 01:32:06.88 18,24 01:32:01.18
27 FANTINI FABIO M M2 7 ASCD VALLE DEL CONCA 01:32:07.36 18,24 01:31:52.52
25 RENZI NICOLA M M3 4 ASD LE SALINE NATURA E SPORT 01:31:26.36 18,37 01:31:18.18
24 COLLINI FRANCESCO M ELMT 4 GS BULGARNO´ BIKE 2008 01:31:13.13 18,42 01:30:55.55
23 BUSSI SIMONE M M2 6 VENTURI ADVENTURE TEAM 01:30:07.37 18,64 01:29:41.41
22 MAZZONI ALESSANDRO M M1 5 180 BPM 01:29:40.87 18,74 01:29:29.47
21 RENZI GIANMARIA M ELMT 3 ASCD VALLE DEL CONCA 01:29:28.35 18,78 01:29:20.15
DNF FABBRI ROBERTO M M1 - AVIS PRATOVECCHIO-ERREPI-LEE COUGAN - - -
20 PARINI MARCELLO M M4 3 VITAMINA TEAM 01:28:56.87 18,89 01:28:47.67
19 PELLEGRINO PARIDE M M3 3 TEAM TORPEDO BIKE 01:28:55.62 18,89 01:28:48.22
18 BOVINO MARIO M M4 2 KTM FORTI E LIBERI 01:28:23.87 19,01 01:28:17.17
17 TIBERI ENRICO M M2 5 TEAM MONDOBICI TECNOPLAST 01:28:19.62 19,02 01:27:59.22
16 VALENTINI STEFANO M M2 4 180 BPM 01:28:08.12 19,06 01:28:03.03
15 RAGGI FABIO M M2 3 GOOD BIKE AS RONCOFREDDESE 01:28:04.12 19,08 01:27:51.51
14 BENDINI MAINARDI ANTONIO M M3 2 BD FAST 01:27:52.35 19,12 01:27:41.41
13 ZAMA LORENZO M M1 4 TEAM PASSION FAENTINA 01:27:11.62 19,27 01:26:53.42
12 BARBERINI ALESSANDRO M JUN 1 ASD CINGHIALI DI MARE 01:26:59.35 19,31 01:26:49.15
11 BRUNETTI MARCO M ELMT 2 ROCK RACING 01:26:45.62 19,37 01:26:32.42
10 GARELLI DAVIDE M M1 3 SCORPION BIKE MTB 01:26:29.87 19,43 01:26:12.87
9 GHISELLI MICHELE M M2 2 ASD MTB DURANTINI 01:26:25.62 19,44 01:26:18.52
8 FIRMIANI MARCO M M2 1 ASD SAMBI TEAM 01:26:19.62 19,46 01:26:09.32
7 GALAMINI MAURIZIO M M5 2 ROMAGNA BIKE GRANDI EVENTI 01:25:04.11 19,75 01:24:58.58
6 ROSSI DANIELE M M1 2 AVIS PRATOVECCHIO-ERREPI-LEE COUGAN 01:23:56.86 20,02 01:23:47.66
5 BRAVACCINI MATTEO M M1 1 CONERO CUP 01:22:50.11 20,28 01:22:34.34
4 PUGLISI DANIELE M ELMT 1 ASD SUPERTEAM VILLA VERUCCHIO 01:22:04.86 20,47 01:21:59.56
3 PERINI GILBERTO M M5 1 AVIS PRATOVECCHIO-ERREPI-LEE COUGAN 01:22:04.34 20,47 01:21:57.14
2 PEZZI FABRIZIO M M4 1 AVIS PRATOVECCHIO-ERREPI-LEE COUGAN 01:21:50.34 20,53 01:21:44.44
1 FABBRI CHRISTIAN M M3 1 TEAM PASSION FAENTINA 01:21:48.11 20,54 01:21:43.43
DNF CHIOCCIOLINI DANIELA F MW2 - 180 BPM 01:28:43.12 18,94 01:27:57.57
DNF TOSI WIDMER M M7 - SPACCO ASD 02:17:31.73 12,22 02:16:20.03
DNF COLOMBO ROBERTO M M4 - ROMAGNA BIKE GRANDI EVENTI 01:03:33.57 26,44 01:03:33.57
DNF GASTALDI CARLO M M5 - SC VELOCIRAPTOR - - -
DNF MANIGRASSO GIOVANNI M M4 - ASD ONLYOFF DUE RUOTE - - -
DNF MORIGI MATTEO M M1 - TEAM TORPEDO BIKE - - -
DNF TAROZZI ROBERTO M 2S - TEAM PASSION FAENTINA - - -
DNF VALBONESI EMANUELE M M2 - 180 BPM - - -

CORTO - 10.0 Km

Pos Atleta Sesso Cat PosC Team Tempo Media RTime
9 SISTRI PIETRO M ES 4 ASD LE SALINE NATURA E SPORT 00:41:13.35 14,56 00:41:13.35
7 BOLOGNA GIANMARCO M ES 3 ASD LE SALINE NATURA E SPORT 00:36:22.09 16,50 00:36:22.09
8 FABBRI GIOVANNI M ALL 5 ASD LE SALINE NATURA E SPORT 00:37:22.59 16,06 00:37:22.59
6 GUAGNELI ALESSANDRO M ALL 4 ASD LE SALINE NATURA E SPORT 00:32:54.08 18,24 00:32:54.08
5 SASSATELLI TOMMASO M ES 2 ASD LEONARDI RACING TEAM 00:29:10.08 20,57 00:29:10.08
4 PARINI DANIELE M ES 1 180 BPM 00:28:40.08 20,93 00:28:40.08
2 BANDINI ALESSANDRO M ALL 2 180 BPM 00:24:55.30 24,08 00:24:55.30
3 PRUCCOLI ANDREA M ALL 3 ASD LE SALINE NATURA E SPORT 00:28:08.07 21,33 00:28:08.07
DNF MENGOZZI MARIA F ALL - ASD LE SALINE NATURA E SPORT - - -
1 TONTI ANDREA M ALL 1 ASD LE SALINE NATURA E SPORT 00:23:44.57 25,28 00:23:44.57